Time;durP1;ratioP1;P1;durP2;ratioP2;P2;SDS_P1;SDS_P2;PMS_P1;PMS_P2;Temp;Humidity;BMP_temperature;BMP_pressure;BME280_temperature;BME280_humidity;BME280_pressure;Samples;Min_cycle;Max_cycle;Signal;HPM_P1;HPM_P2
2023/08/24 00:01:22;;;;;;;18.92;17.35;;;23.50;99.90;;;;;;5145659;28;20356;-75
2023/08/24 00:03:53;;;;;;;17.73;16.25;;;23.50;99.90;;;;;;5140431;28;20086;-76
2023/08/24 00:06:27;;;;;;;21.08;17.40;;;23.40;99.90;;;;;;5125817;28;20035;-75
2023/08/24 00:08:59;;;;;;;18.23;16.52;;;23.40;99.90;;;;;;5126765;28;20499;-75
2023/08/24 00:11:30;;;;;;;19.15;17.65;;;23.30;99.90;;;;;;5153265;28;20061;-75
2023/08/24 00:14:02;;;;;;;21.58;16.70;;;23.30;99.90;;;;;;5147897;28;20113;-75
2023/08/24 00:16:33;;;;;;;19.13;17.42;;;23.30;99.90;;;;;;5145949;28;20497;-74
2023/08/24 00:19:04;;;;;;;18.05;16.48;;;23.20;99.90;;;;;;5144732;28;20026;-77
2023/08/24 00:21:35;;;;;;;17.50;15.90;;;23.30;99.90;;;;;;5144627;28;20026;-75
2023/08/24 00:24:06;;;;;;;19.50;17.98;;;23.20;99.90;;;;;;5127350;28;20039;-75
2023/08/24 00:26:37;;;;;;;21.80;20.00;;;23.30;99.90;;;;;;5148053;28;20035;-76
2023/08/24 00:29:07;;;;;;;72.47;17.08;;;23.40;99.90;;;;;;5149214;28;20565;-76
2023/08/24 00:31:38;;;;;;;15.80;14.27;;;23.30;99.90;;;;;;5149088;28;20038;-74
2023/08/24 00:34:09;;;;;;;15.52;14.15;;;23.40;99.90;;;;;;5149128;28;20035;-75
2023/08/24 00:36:40;;;;;;;17.65;16.15;;;23.20;99.90;;;;;;5149085;28;20027;-75
2023/08/24 00:39:11;;;;;;;17.42;15.77;;;23.20;99.90;;;;;;5148751;28;20033;-76
2023/08/24 00:41:42;;;;;;;120.05;22.27;;;23.10;99.90;;;;;;5147009;28;20027;-75
2023/08/24 00:44:13;;;;;;;44.45;15.48;;;23.10;99.90;;;;;;5145503;28;20045;-75
2023/08/24 00:46:44;;;;;;;67.13;35.22;;;23.00;99.90;;;;;;5149391;28;20043;-76
2023/08/24 00:49:15;;;;;;;15.52;14.30;;;23.00;99.90;;;;;;5149038;28;20023;-75
2023/08/24 00:51:46;;;;;;;16.08;14.48;;;23.00;99.90;;;;;;5149011;28;20023;-76
2023/08/24 00:54:18;;;;;;;15.23;13.80;;;22.90;99.90;;;;;;5148629;28;20422;-75
2023/08/24 00:56:49;;;;;;;16.98;14.50;;;23.00;99.90;;;;;;5148824;28;20102;-75
2023/08/24 00:59:20;;;;;;;17.13;14.90;;;23.00;99.90;;;;;;5149001;28;20126;-75
2023/08/24 01:01:51;;;;;;;14.15;12.85;;;23.00;99.90;;;;;;5148720;28;20023;-75
2023/08/24 01:04:23;;;;;;;14.25;13.02;;;23.00;99.90;;;;;;5148770;28;20035;-74
2023/08/24 01:06:54;;;;;;;14.85;13.43;;;22.90;99.90;;;;;;5148592;28;20031;-75
2023/08/24 01:09:25;;;;;;;15.02;13.73;;;22.80;99.90;;;;;;5148601;28;20027;-75
2023/08/24 01:12:06;;;;;;;26.20;13.07;;;22.90;99.90;;;;;;5148436;28;20074;-76
2023/08/24 01:14:52;;;;;;;15.10;13.27;;;22.80;99.90;;;;;;5148480;28;20031;-76
2023/08/24 01:17:27;;;;;;;14.70;13.40;;;22.90;99.90;;;;;;5148493;28;20050;-75
2023/08/24 01:19:59;;;;;;;15.45;14.15;;;22.70;99.90;;;;;;5148557;28;20023;-75
2023/08/24 01:22:37;;;;;;;13.05;11.95;;;22.60;99.90;;;;;;5148390;28;20030;-75
2023/08/24 01:25:15;;;;;;;14.52;13.05;;;22.70;99.90;;;;;;5148683;28;20034;-75
2023/08/24 01:27:49;;;;;;;141.68;29.55;;;22.70;99.90;;;;;;5148197;28;20069;-75
2023/08/24 01:30:20;;;;;;;111.55;39.60;;;22.50;99.90;;;;;;5148119;28;20035;-75
2023/08/24 01:32:51;;;;;;;16.55;15.05;;;22.40;99.90;;;;;;5147717;28;20105;-75
2023/08/24 01:35:28;;;;;;;15.60;14.20;;;22.50;99.90;;;;;;5147327;28;20062;-75
2023/08/24 01:38:03;;;;;;;16.85;15.45;;;22.40;99.90;;;;;;5619815;23;20047;-76
2023/08/24 01:41:09;;;;;;;16.80;15.40;;;22.10;99.90;;;;;;5165885;28;20439;-76
2023/08/24 01:43:44;;;;;;;16.58;15.02;;;22.40;99.90;;;;;;5168045;28;20034;-75
2023/08/24 01:46:17;;;;;;;16.75;15.20;;;22.50;99.90;;;;;;5167961;28;20410;-75
2023/08/24 01:48:49;;;;;;;15.30;14.02;;;22.40;99.90;;;;;;5168154;28;20458;-76
2023/08/24 01:51:21;;;;;;;17.00;15.40;;;22.40;99.90;;;;;;5167727;28;20371;-76
2023/08/24 01:53:53;;;;;;;15.82;14.55;;;22.50;99.90;;;;;;5167970;28;20078;-75
2023/08/24 01:56:24;;;;;;;15.10;13.90;;;22.60;99.90;;;;;;5167231;28;20018;-76
2023/08/24 01:58:54;;;;;;;15.85;14.32;;;22.60;99.90;;;;;;5166554;28;20038;-76
2023/08/24 02:01:25;;;;;;;15.43;14.13;;;22.60;99.90;;;;;;5167674;28;20442;-75
2023/08/24 02:03:56;;;;;;;16.23;14.52;;;22.50;99.90;;;;;;5167616;28;20030;-76
2023/08/24 02:06:27;;;;;;;15.52;14.23;;;22.60;99.90;;;;;;5169040;28;20034;-76
2023/08/24 02:08:58;;;;;;;16.38;14.98;;;22.50;99.90;;;;;;5167671;28;20493;-76
2023/08/24 02:11:29;;;;;;;18.30;16.50;;;22.60;99.90;;;;;;5167224;28;20046;-75
2023/08/24 02:13:59;;;;;;;16.40;14.77;;;22.60;99.90;;;;;;5167408;28;20026;-76
2023/08/24 02:16:30;;;;;;;16.40;14.95;;;22.60;99.90;;;;;;5162121;28;20026;-76
2023/08/24 02:19:01;;;;;;;16.40;14.90;;;22.70;99.90;;;;;;5153028;28;20106;-78
2023/08/24 02:21:34;;;;;;;18.38;16.98;;;22.60;99.90;;;;;;5159927;28;20031;-75
2023/08/24 02:24:06;;;;;;;16.75;15.25;;;22.60;99.90;;;;;;5163863;28;20470;-75
2023/08/24 02:26:37;;;;;;;15.40;14.02;;;22.70;99.90;;;;;;5164171;28;20387;-75
2023/08/24 02:29:08;;;;;;;25.23;15.35;;;22.70;99.90;;;;;;5167148;28;20026;-75
2023/08/24 02:31:38;;;;;;;17.27;15.70;;;22.70;99.90;;;;;;5165869;28;20018;-76
2023/08/24 02:34:09;;;;;;;17.80;16.10;;;22.70;99.90;;;;;;5161800;28;20073;-75
2023/08/24 02:36:40;;;;;;;15.90;14.60;;;22.70;99.90;;;;;;5159761;28;20433;-75
2023/08/24 02:39:11;;;;;;;17.08;15.57;;;22.60;99.90;;;;;;5165739;28;20093;-75
2023/08/24 02:41:42;;;;;;;16.23;14.70;;;22.70;99.90;;;;;;5162308;28;20038;-75
2023/08/24 02:44:13;;;;;;;128.25;49.90;;;22.70;99.90;;;;;;5163643;28;20026;-76
2023/08/24 02:46:49;;;;;;;17.48;15.98;;;22.70;99.90;;;;;;5165467;28;20383;-76
2023/08/24 02:49:20;;;;;;;79.82;25.08;;;22.70;99.90;;;;;;5165213;28;20475;-76
2023/08/24 02:51:51;;;;;;;108.30;44.17;;;22.80;99.90;;;;;;5167019;28;20029;-75
2023/08/24 02:54:22;;;;;;;18.92;16.92;;;22.80;99.90;;;;;;5166999;28;20490;-75
2023/08/24 02:56:53;;;;;;;39.55;23.60;;;22.70;99.90;;;;;;5166914;28;20050;-75
2023/08/24 02:59:24;;;;;;;37.83;17.73;;;22.70;99.90;;;;;;5166848;28;20033;-75
2023/08/24 03:01:55;;;;;;;25.77;21.15;;;22.60;99.90;;;;;;5161905;28;20030;-75
2023/08/24 03:04:27;;;;;;;16.52;15.00;;;22.80;99.90;;;;;;5166458;28;20034;-75
2023/08/24 03:06:58;;;;;;;29.60;19.52;;;22.70;99.90;;;;;;5166487;28;20096;-75
2023/08/24 03:09:29;;;;;;;99.20;91.57;;;22.60;99.90;;;;;;5166658;28;20113;-75
2023/08/24 03:11:59;;;;;;;71.93;23.83;;;22.70;99.90;;;;;;5166013;28;20034;-75
2023/08/24 03:14:30;;;;;;;48.97;20.20;;;22.60;99.90;;;;;;5161734;28;20019;-75
2023/08/24 03:17:04;;;;;;;70.95;33.47;;;22.60;99.90;;;;;;5163315;28;20029;-76
2023/08/24 03:19:35;;;;;;;41.22;19.73;;;22.70;99.90;;;;;;5157539;28;20523;-76
2023/08/24 03:22:06;;;;;;;16.60;15.20;;;22.60;99.90;;;;;;5150038;28;20058;-75
2023/08/24 03:24:37;;;;;;;16.88;15.35;;;22.60;99.90;;;;;;5161071;28;20019;-75
2023/08/24 03:27:09;;;;;;;15.98;14.63;;;22.80;99.90;;;;;;5161524;28;20173;-75
2023/08/24 03:29:40;;;;;;;16.10;14.73;;;22.80;99.90;;;;;;5164627;28;20061;-76
2023/08/24 03:32:10;;;;;;;16.30;14.90;;;22.70;99.90;;;;;;5166029;28;20487;-75
2023/08/24 03:34:42;;;;;;;17.27;15.48;;;22.80;99.90;;;;;;5164723;28;20105;-75
2023/08/24 03:37:13;;;;;;;17.08;15.07;;;22.80;99.90;;;;;;5164761;28;20564;-75
2023/08/24 03:39:44;;;;;;;16.65;15.02;;;22.50;99.90;;;;;;5157502;28;20019;-77
2023/08/24 03:42:15;;;;;;;16.92;15.40;;;22.70;99.90;;;;;;5165685;28;20034;-75
2023/08/24 03:44:46;;;;;;;15.75;14.30;;;22.70;99.90;;;;;;5165498;28;20466;-75
2023/08/24 03:47:17;;;;;;;16.27;14.77;;;22.60;99.90;;;;;;5165706;28;20043;-75
2023/08/24 03:49:48;;;;;;;16.23;14.68;;;22.70;99.90;;;;;;5174062;28;20101;-75
2023/08/24 03:52:19;;;;;;;16.17;14.45;;;22.60;99.90;;;;;;5164624;28;20040;-75
2023/08/24 03:54:49;;;;;;;17.25;15.65;;;22.80;99.90;;;;;;5169024;28;20072;-75
2023/08/24 03:57:20;;;;;;;16.33;14.95;;;22.80;99.90;;;;;;5191074;28;20023;-76
2023/08/24 03:59:51;;;;;;;16.85;15.07;;;22.70;99.90;;;;;;5176712;28;20036;-76
2023/08/24 04:02:22;;;;;;;16.77;15.20;;;22.80;99.90;;;;;;5172209;28;20019;-75
2023/08/24 04:04:53;;;;;;;16.38;14.98;;;22.80;99.90;;;;;;5184222;28;20022;-75
2023/08/24 04:07:24;;;;;;;17.50;16.00;;;22.70;99.90;;;;;;5178810;28;20052;-76
2023/08/24 04:09:55;;;;;;;18.88;17.13;;;23.00;99.90;;;;;;5176334;28;20104;-75
2023/08/24 04:12:26;;;;;;;17.58;16.02;;;22.90;99.90;;;;;;5189878;28;20041;-75
2023/08/24 04:14:57;;;;;;;18.20;16.65;;;23.00;99.90;;;;;;5189423;28;20112;-75
2023/08/24 04:17:28;;;;;;;18.55;17.05;;;23.00;99.90;;;;;;5204915;28;20509;-75
2023/08/24 04:19:59;;;;;;;18.17;16.38;;;23.00;99.90;;;;;;5188274;28;20112;-75
2023/08/24 04:22:30;;;;;;;17.95;16.50;;;23.10;99.90;;;;;;5204351;28;20033;-74
2023/08/24 04:25:01;;;;;;;18.73;16.92;;;23.10;99.90;;;;;;5189382;28;20533;-75
2023/08/24 04:27:34;;;;;;;17.58;15.98;;;23.20;99.90;;;;;;5189354;28;20124;-75
2023/08/24 04:30:05;;;;;;;18.17;16.67;;;23.20;99.90;;;;;;5189859;28;20025;-75
2023/08/24 04:32:36;;;;;;;19.38;17.50;;;23.30;99.90;;;;;;5189804;28;20018;-75
2023/08/24 04:35:08;;;;;;;17.27;15.77;;;23.20;99.90;;;;;;5189607;28;20026;-75
2023/08/24 04:37:38;;;;;;;17.13;15.60;;;23.30;99.90;;;;;;5189201;28;20050;-76
2023/08/24 04:40:11;;;;;;;18.10;16.25;;;23.30;99.90;;;;;;5188422;28;20499;-74
2023/08/24 04:42:41;;;;;;;19.17;17.45;;;23.40;99.90;;;;;;5189604;28;20116;-75
2023/08/24 04:45:12;;;;;;;19.40;17.80;;;23.40;99.90;;;;;;5189659;28;20550;-75
2023/08/24 04:47:43;;;;;;;23.92;18.50;;;23.50;99.90;;;;;;5189444;28;20048;-74
2023/08/24 04:50:14;;;;;;;19.70;18.00;;;23.50;99.90;;;;;;5189626;28;20068;-75
2023/08/24 04:52:45;;;;;;;20.38;18.77;;;23.70;99.90;;;;;;5189557;28;20030;-75
2023/08/24 04:55:16;;;;;;;20.83;18.80;;;23.80;99.90;;;;;;5189043;28;20481;-75
2023/08/24 04:57:47;;;;;;;20.10;18.10;;;23.70;99.90;;;;;;5189430;28;20030;-75
2023/08/24 05:00:18;;;;;;;133.50;22.10;;;23.80;99.90;;;;;;5189089;28;20032;-75
2023/08/24 05:02:49;;;;;;;72.82;20.15;;;23.80;99.90;;;;;;5189071;28;20026;-75
2023/08/24 05:05:20;;;;;;;43.17;20.33;;;24.10;99.90;;;;;;5188952;28;20029;-75
2023/08/24 05:07:51;;;;;;;31.13;18.73;;;24.10;99.90;;;;;;5188576;28;20073;-75
2023/08/24 05:10:22;;;;;;;23.60;18.13;;;24.10;99.90;;;;;;5186457;28;20030;-75
2023/08/24 05:12:52;;;;;;;18.85;17.10;;;24.20;99.90;;;;;;5188555;28;20041;-75
2023/08/24 05:15:23;;;;;;;46.00;18.80;;;24.10;99.90;;;;;;5188201;28;20032;-75
2023/08/24 05:17:54;;;;;;;23.27;19.33;;;24.20;99.90;;;;;;5187209;28;20018;-75
2023/08/24 05:20:26;;;;;;;28.30;18.77;;;24.20;99.90;;;;;;5187254;28;20037;-75
2023/08/24 05:22:57;;;;;;;27.13;18.38;;;24.20;99.90;;;;;;5203425;28;20072;-75
2023/08/24 05:25:28;;;;;;;20.60;17.23;;;24.40;99.90;;;;;;5188190;28;20445;-75
2023/08/24 05:28:00;;;;;;;102.88;35.75;;;24.40;99.90;;;;;;5188183;28;20057;-75
2023/08/24 05:30:31;;;;;;;21.38;19.35;;;24.40;99.90;;;;;;5188313;28;20034;-75
2023/08/24 05:33:02;;;;;;;107.30;41.53;;;24.70;99.90;;;;;;5188282;28;20048;-75
2023/08/24 05:35:33;;;;;;;20.08;18.05;;;24.70;99.90;;;;;;5188722;28;20466;-75
2023/08/24 05:38:04;;;;;;;44.05;24.27;;;25.00;99.90;;;;;;5188118;28;20046;-76
2023/08/24 05:40:36;;;;;;;83.43;26.02;;;25.00;99.90;;;;;;5188183;28;20034;-76
2023/08/24 05:43:07;;;;;;;28.35;19.85;;;25.10;99.90;;;;;;5187416;28;20498;-75
2023/08/24 05:45:44;;;;;;;68.90;25.77;;;25.30;99.90;;;;;;5188287;28;20057;-75
2023/08/24 05:48:15;;;;;;;132.13;46.60;;;25.30;99.90;;;;;;5203234;28;20034;-76
2023/08/24 05:50:47;;;;;;;36.63;16.80;;;25.20;99.90;;;;;;5188048;28;20029;-75
2023/08/24 05:53:17;;;;;;;22.25;16.30;;;25.30;99.90;;;;;;5188100;28;20025;-75
2023/08/24 05:55:48;;;;;;;595.00;88.63;;;25.70;99.90;;;;;;5187850;28;20052;-75
2023/08/24 05:58:19;;;;;;;17.50;14.90;;;26.00;99.90;;;;;;5185589;28;20122;-75
2023/08/24 06:00:56;;;;;;;15.15;13.55;;;25.90;99.90;;;;;;5187782;28;20064;-76
2023/08/24 06:03:27;;;;;;;15.35;13.75;;;25.80;99.90;;;;;;5185890;28;20492;-76
2023/08/24 06:06:03;;;;;;;13.93;12.40;;;25.90;99.90;;;;;;5186374;28;20101;-75
2023/08/24 06:08:34;;;;;;;14.77;13.38;;;25.90;99.90;;;;;;5186554;28;20042;-76
2023/08/24 06:11:04;;;;;;;16.15;13.90;;;25.90;99.90;;;;;;5186550;28;20026;-77
2023/08/24 06:13:35;;;;;;;17.20;13.27;;;26.00;99.90;;;;;;5177871;28;20467;-75
2023/08/24 06:16:06;;;;;;;14.50;13.00;;;26.00;99.90;;;;;;5146779;28;20043;-75
2023/08/24 06:18:37;;;;;;;19.05;13.35;;;26.10;99.90;;;;;;5146104;28;20026;-75
2023/08/24 06:21:08;;;;;;;18.92;13.30;;;26.10;99.90;;;;;;5146676;28;20110;-73
2023/08/24 06:23:39;;;;;;;92.70;21.08;;;26.40;99.90;;;;;;5145093;28;20051;-75
2023/08/24 06:26:10;;;;;;;14.93;12.68;;;26.70;99.90;;;;;;5145564;28;20451;-75
2023/08/24 06:28:41;;;;;;;13.30;11.65;;;26.70;99.90;;;;;;5146016;28;20027;-75
2023/08/24 06:31:12;;;;;;;14.95;12.88;;;26.80;99.90;;;;;;5144845;28;20518;-76
2023/08/24 06:33:43;;;;;;;14.13;11.65;;;26.90;99.90;;;;;;5144592;28;20110;-76
2023/08/24 06:36:14;;;;;;;36.85;12.85;;;26.80;99.90;;;;;;5143141;28;20482;-75
2023/08/24 06:38:44;;;;;;;13.23;12.02;;;27.10;99.90;;;;;;5144585;28;20455;-75
2023/08/24 06:41:15;;;;;;;14.40;12.93;;;27.20;99.90;;;;;;5143428;28;20455;-75
2023/08/24 06:43:46;;;;;;;14.18;12.68;;;27.40;99.90;;;;;;5144564;28;20053;-75
2023/08/24 06:46:19;;;;;;;15.40;14.00;;;27.60;99.90;;;;;;5145313;28;20541;-75
2023/08/24 06:48:49;;;;;;;15.75;14.15;;;27.60;99.90;;;;;;5145513;28;20026;-75
2023/08/24 06:51:20;;;;;;;15.68;13.20;;;27.60;99.90;;;;;;5143275;28;20566;-75
2023/08/24 06:53:51;;;;;;;17.75;14.27;;;27.80;99.90;;;;;;5144536;28;20050;-75
2023/08/24 06:56:22;;;;;;;15.27;13.68;;;27.60;99.90;;;;;;5144425;28;20080;-75
2023/08/24 06:58:53;;;;;;;14.15;12.80;;;27.40;99.90;;;;;;5144305;28;20101;-75
2023/08/24 07:01:25;;;;;;;15.60;12.02;;;27.60;99.90;;;;;;5144197;28;20069;-75
2023/08/24 07:03:56;;;;;;;13.02;11.93;;;27.50;99.90;;;;;;5144270;28;20034;-75
2023/08/24 07:06:27;;;;;;;14.23;12.50;;;27.30;99.90;;;;;;5143642;28;20454;-75
2023/08/24 07:08:59;;;;;;;13.15;11.80;;;27.50;99.90;;;;;;5145490;28;20027;-75
2023/08/24 07:11:30;;;;;;;13.25;11.18;;;27.60;99.90;;;;;;5144241;28;20127;-75
2023/08/24 07:14:01;;;;;;;12.30;11.30;;;27.90;99.90;;;;;;5145310;28;20027;-76
2023/08/24 07:16:32;;;;;;;12.55;11.38;;;28.00;99.90;;;;;;5145206;28;20026;-75
2023/08/24 07:19:05;;;;;;;11.23;10.23;;;28.20;99.90;;;;;;5145219;28;20031;-76
2023/08/24 07:21:35;;;;;;;11.70;10.48;;;28.30;99.90;;;;;;5144816;28;20019;-75
2023/08/24 07:24:07;;;;;;;11.63;10.60;;;28.20;99.90;;;;;;5144842;28;20053;-75
2023/08/24 07:26:37;;;;;;;13.38;9.77;;;28.30;99.90;;;;;;5155309;28;20557;-75
2023/08/24 07:29:09;;;;;;;12.35;10.13;;;28.30;99.90;;;;;;5148590;28;20035;-75
2023/08/24 07:31:40;;;;;;;11.35;10.45;;;28.40;99.90;;;;;;5143890;28;20051;-75
2023/08/24 07:34:11;;;;;;;11.73;10.70;;;28.40;99.90;;;;;;5143683;28;20046;-75
2023/08/24 07:36:42;;;;;;;12.90;11.63;;;28.50;99.90;;;;;;5143608;28;20497;-76
2023/08/24 07:39:13;;;;;;;13.43;12.07;;;28.70;99.90;;;;;;5143538;28;20055;-75
2023/08/24 07:41:45;;;;;;;14.95;13.40;;;28.60;99.90;;;;;;5144195;28;20022;-75
2023/08/24 07:44:16;;;;;;;12.82;11.77;;;28.80;99.90;;;;;;5145136;28;20038;-75
2023/08/24 07:46:50;;;;;;;13.27;11.73;;;28.80;99.90;;;;;;5143579;28;20027;-74
2023/08/24 07:49:21;;;;;;;11.75;10.75;;;29.00;99.90;;;;;;5145005;28;20418;-76
2023/08/24 07:51:52;;;;;;;10.57;9.48;;;29.10;99.90;;;;;;5145033;28;20023;-75
2023/08/24 07:54:22;;;;;;;11.60;10.25;;;29.10;99.90;;;;;;5144133;28;20026;-76
2023/08/24 07:56:53;;;;;;;11.65;10.57;;;29.00;99.90;;;;;;5144419;28;20337;-75
2023/08/24 07:59:24;;;;;;;15.77;11.05;;;29.20;99.90;;;;;;5163217;28;20118;-74
2023/08/24 08:01:55;;;;;;;11.57;10.65;;;29.40;99.90;;;;;;5163669;28;20437;-75
2023/08/24 08:04:26;;;;;;;14.02;12.63;;;29.30;99.90;;;;;;5163602;28;20050;-74
2023/08/24 08:06:57;;;;;;;12.13;11.00;;;29.50;99.90;;;;;;5163251;28;20065;-76
2023/08/24 08:09:27;;;;;;;13.60;12.25;;;29.50;99.90;;;;;;5163700;28;20378;-74
2023/08/24 08:11:58;;;;;;;18.73;12.13;;;29.60;99.90;;;;;;5164004;28;20438;-75
2023/08/24 08:14:29;;;;;;;12.60;11.43;;;29.50;99.90;;;;;;5164699;28;20037;-75
2023/08/24 08:17:00;;;;;;;12.48;11.48;;;29.70;99.90;;;;;;5164752;28;20022;-75
2023/08/24 08:19:31;;;;;;;13.45;11.20;;;29.70;99.90;;;;;;5164674;28;20026;-73
2023/08/24 08:22:02;;;;;;;12.25;11.15;;;29.40;99.90;;;;;;5164637;28;20026;-73
2023/08/24 08:24:33;;;;;;;12.98;11.70;;;29.50;99.90;;;;;;5164689;28;20485;-74
2023/08/24 08:27:04;;;;;;;12.55;11.35;;;29.30;99.90;;;;;;5164512;28;20366;-75
2023/08/24 08:29:35;;;;;;;12.75;11.25;;;29.90;99.90;;;;;;5164478;28;20027;-75
2023/08/24 08:32:07;;;;;;;12.40;11.15;;;29.80;99.90;;;;;;5156401;28;20042;-73
2023/08/24 08:34:38;;;;;;;12.52;11.23;;;29.80;99.90;;;;;;5161972;28;20105;-72
2023/08/24 08:37:09;;;;;;;11.88;10.00;;;29.70;99.90;;;;;;5164309;28;20062;-73
2023/08/24 08:39:40;;;;;;;10.77;9.57;;;30.00;99.90;;;;;;5163444;28;20145;-72
2023/08/24 08:42:13;;;;;;;10.93;9.68;;;30.10;99.90;;;;;;5164566;28;20369;-72
2023/08/24 08:44:46;;;;;;;10.68;9.52;;;30.10;99.90;;;;;;5163520;28;20680;-72
2023/08/24 08:47:17;;;;;;;11.38;9.98;;;30.10;99.90;;;;;;5166803;28;20033;-76
2023/08/24 08:49:49;;;;;;;12.15;9.45;;;30.00;99.90;;;;;;5166144;28;20027;-72
2023/08/24 08:52:20;;;;;;;11.18;10.18;;;30.10;99.90;;;;;;5167855;28;20026;-73
2023/08/24 08:54:52;;;;;;;9.80;8.90;;;30.20;99.90;;;;;;5167982;28;20473;-78
2023/08/24 08:57:24;;;;;;;12.88;9.88;;;30.20;99.90;;;;;;5168051;28;20077;-75
2023/08/24 08:59:55;;;;;;;9.75;8.75;;;30.10;99.90;;;;;;5167875;28;20026;-73
2023/08/24 09:02:30;;;;;;;11.25;9.80;;;30.20;99.90;;;;;;5167923;28;20489;-73
2023/08/24 09:05:04;;;;;;;11.85;9.27;;;30.50;99.90;;;;;;5167817;28;20027;-78
2023/08/24 09:07:35;;;;;;;9.25;8.40;;;30.50;99.90;;;;;;5166552;28;20113;-73
2023/08/24 09:10:07;;;;;;;9.90;7.82;;;30.60;99.90;;;;;;5167723;28;20026;-73
2023/08/24 09:12:38;;;;;;;8.75;7.95;;;30.70;99.90;;;;;;5167794;28;20035;-72
2023/08/24 09:15:10;;;;;;;14.50;9.00;;;30.70;99.90;;;;;;5167543;28;20021;-73
2023/08/24 09:17:44;;;;;;;9.68;7.65;;;30.80;99.90;;;;;;5167566;28;20129;-78
2023/08/24 09:20:15;;;;;;;8.90;8.07;;;30.80;99.90;;;;;;5167477;28;20023;-74
2023/08/24 09:22:46;;;;;;;9.63;8.63;;;31.00;99.90;;;;;;5167583;28;20109;-76
2023/08/24 09:25:17;;;;;;;8.77;7.88;;;31.00;99.90;;;;;;5167229;28;20110;-73
2023/08/24 09:27:57;;;;;;;8.95;7.72;;;31.10;99.90;;;;;;5165954;28;20043;-74
2023/08/24 09:30:32;;;;;;;9.27;7.50;;;30.90;99.90;;;;;;5167358;28;20386;-77
2023/08/24 09:33:04;;;;;;;12.68;8.02;;;31.00;99.90;;;;;;5167227;28;20092;-74
2023/08/24 09:35:39;;;;;;;8.63;7.75;;;31.10;99.90;;;;;;5167072;28;20355;-77
2023/08/24 09:38:20;;;;;;;8.70;7.90;;;31.00;99.90;;;;;;5167033;28;20055;-77
2023/08/24 09:40:53;;;;;;;9.15;8.27;;;31.00;99.90;;;;;;5167183;28;20042;-75
2023/08/24 09:43:24;;;;;;;7.75;7.05;;;31.00;99.90;;;;;;5166364;28;20430;-73
2023/08/24 09:45:56;;;;;;;8.25;7.55;;;31.00;99.90;;;;;;5166344;28;20034;-78
2023/08/24 09:48:27;;;;;;;11.15;8.40;;;31.00;99.90;;;;;;5165513;28;20036;-75
2023/08/24 09:51:00;;;;;;;8.77;7.78;;;31.00;99.90;;;;;;5165596;28;20023;-75
2023/08/24 09:53:37;;;;;;;8.93;8.00;;;31.00;99.90;;;;;;5165512;28;20027;-77
2023/08/24 09:56:09;;;;;;;9.57;7.88;;;31.10;99.90;;;;;;5164528;28;20498;-76
2023/08/24 09:58:41;;;;;;;8.75;7.85;;;31.10;99.90;;;;;;5179888;28;20426;-77
2023/08/24 10:01:13;;;;;;;10.88;8.20;;;31.20;99.90;;;;;;5165497;28;20026;-72
2023/08/24 10:03:45;;;;;;;9.85;7.70;;;31.20;99.90;;;;;;5167005;28;20031;-73
2023/08/24 10:06:18;;;;;;;11.75;7.95;;;31.30;99.90;;;;;;5159558;28;20030;-73
2023/08/24 10:09:01;;;;;;;8.98;7.95;;;31.00;99.90;;;;;;5162187;28;20031;-73
2023/08/24 10:11:42;;;;;;;8.82;7.43;;;31.00;99.90;;;;;;5166656;28;20114;-72
2023/08/24 10:14:19;;;;;;;9.68;7.75;;;31.20;99.90;;;;;;5166580;28;20539;-73
2023/08/24 10:16:52;;;;;;;12.13;7.75;;;31.50;99.90;;;;;;5166634;28;20058;-73
2023/08/24 10:19:24;;;;;;;11.00;8.50;;;31.00;99.90;;;;;;5166437;28;20474;-72
2023/08/24 10:21:57;;;;;;;10.55;8.05;;;31.00;99.90;;;;;;5166412;28;20026;-75
2023/08/24 10:24:29;;;;;;;9.27;8.30;;;31.30;99.90;;;;;;5166382;28;20030;-73
2023/08/24 10:27:02;;;;;;;9.63;7.65;;;31.40;99.90;;;;;;5166269;28;20041;-78
2023/08/24 10:29:32;;;;;;;12.75;8.98;;;31.10;99.90;;;;;;5166234;28;20410;-72
2023/08/24 10:32:04;;;;;;;10.90;8.48;;;31.20;99.90;;;;;;5164727;28;20034;-72
2023/08/24 10:34:36;;;;;;;12.90;8.30;;;31.00;99.90;;;;;;5164674;28;20393;-72
2023/08/24 10:37:11;;;;;;;10.38;7.93;;;31.00;99.90;;;;;;5165639;28;20031;-73
2023/08/24 10:39:46;;;;;;;10.52;8.10;;;31.30;99.90;;;;;;5165384;28;20033;-72
2023/08/24 10:42:17;;;;;;;13.80;7.85;;;31.20;99.90;;;;;;5165121;28;20030;-72
2023/08/24 10:44:51;;;;;;;13.45;7.90;;;31.60;99.90;;;;;;5165988;28;20523;-72
2023/08/24 10:47:23;;;;;;;11.00;8.13;;;31.10;99.90;;;;;;5165782;28;20545;-72
2023/08/24 10:49:54;;;;;;;12.23;7.97;;;31.20;99.90;;;;;;5165644;28;20034;-72
2023/08/24 10:52:30;;;;;;;8.88;8.00;;;31.10;99.90;;;;;;5165549;28;20041;-73
2023/08/24 10:55:03;;;;;;;11.80;8.95;;;31.20;99.90;;;;;;5165661;28;20384;-73
2023/08/24 10:57:38;;;;;;;11.40;8.13;;;31.40;99.90;;;;;;5165666;28;20022;-73
2023/08/24 11:00:11;;;;;;;10.00;8.55;;;31.50;99.90;;;;;;5165641;28;20575;-73
2023/08/24 11:02:50;;;;;;;9.55;7.85;;;31.50;99.90;;;;;;5165635;28;20022;-72
2023/08/24 11:05:30;;;;;;;9.88;8.32;;;31.30;99.90;;;;;;5165545;28;20026;-73
2023/08/24 11:08:04;;;;;;;9.35;7.90;;;31.30;99.90;;;;;;5164897;28;20058;-72
2023/08/24 11:10:46;;;;;;;14.55;8.88;;;31.40;99.90;;;;;;5165736;28;20429;-72
2023/08/24 11:13:24;;;;;;;13.18;7.93;;;31.30;99.90;;;;;;5164792;28;20038;-72
2023/08/24 11:15:57;;;;;;;10.30;8.57;;;31.50;99.90;;;;;;5165486;28;20030;-73
2023/08/24 11:18:29;;;;;;;10.65;7.07;;;31.60;99.90;;;;;;5165063;28;20026;-73
2023/08/24 11:21:05;;;;;;;9.65;7.10;;;31.50;99.90;;;;;;5165458;28;20063;-74
2023/08/24 11:23:38;;;;;;;14.68;7.85;;;31.00;99.90;;;;;;5165355;28;20031;-73
2023/08/24 11:26:09;;;;;;;9.27;8.48;;;31.40;99.90;;;;;;5165355;28;20110;-73
2023/08/24 11:28:40;;;;;;;7.85;7.05;;;30.70;99.90;;;;;;5165299;28;20117;-73
2023/08/24 11:31:11;;;;;;;12.00;7.85;;;31.40;99.90;;;;;;5165194;28;20022;-73
2023/08/24 11:33:42;;;;;;;9.75;8.20;;;31.30;99.90;;;;;;5165118;28;20058;-73
2023/08/24 11:36:13;;;;;;;9.10;7.50;;;31.50;99.90;;;;;;5163638;28;20065;-72
2023/08/24 11:38:47;;;;;;;11.82;8.43;;;31.40;99.90;;;;;;5165042;28;20463;-73
2023/08/24 11:41:19;;;;;;;8.82;7.82;;;31.20;99.90;;;;;;5163777;28;20466;-72
2023/08/24 11:43:57;;;;;;;8.27;7.40;;;31.10;99.90;;;;;;5165029;28;20034;-72
2023/08/24 11:46:30;;;;;;;9.75;8.07;;;31.30;99.90;;;;;;5164998;28;20026;-73
2023/08/24 11:49:04;;;;;;;11.65;8.23;;;31.50;99.90;;;;;;5164989;28;20534;-72
2023/08/24 11:51:36;;;;;;;8.40;7.60;;;31.70;99.90;;;;;;5164937;28;20041;-73
2023/08/24 11:54:08;;;;;;;8.82;8.07;;;31.40;99.90;;;;;;5164932;28;20180;-73
2023/08/24 11:56:43;;;;;;;10.15;7.88;;;31.60;99.90;;;;;;5164910;28;20482;-76
2023/08/24 11:59:15;;;;;;;10.25;7.03;;;31.40;99.90;;;;;;5163526;28;20066;-73
2023/08/24 12:01:47;;;;;;;8.02;7.32;;;31.50;99.90;;;;;;5164071;28;20624;-72
2023/08/24 12:04:18;;;;;;;9.40;6.45;;;31.60;99.90;;;;;;5164362;28;20105;-72
2023/08/24 12:06:48;;;;;;;10.88;6.65;;;31.50;99.90;;;;;;5162728;28;20141;-72
2023/08/24 12:09:19;;;;;;;10.98;6.97;;;31.30;99.90;;;;;;5164690;28;20034;-75
2023/08/24 12:11:57;;;;;;;10.82;7.00;;;31.30;99.90;;;;;;5165209;28;20065;-73
2023/08/24 12:14:28;;;;;;;9.52;6.63;;;31.10;99.90;;;;;;5164636;28;20019;-73
2023/08/24 12:17:06;;;;;;;13.02;7.18;;;31.40;99.90;;;;;;5164655;28;20467;-73
2023/08/24 12:19:37;;;;;;;14.07;7.63;;;31.60;99.90;;;;;;5179382;28;20050;-73
2023/08/24 12:22:12;;;;;;;12.63;6.70;;;31.30;99.90;;;;;;5168170;28;20030;-72
2023/08/24 12:24:46;;;;;;;17.58;7.45;;;31.10;99.90;;;;;;5168510;28;20109;-74
2023/08/24 12:27:25;;;;;;;12.27;7.78;;;31.10;99.90;;;;;;5168612;28;20038;-74
2023/08/24 12:30:00;;;;;;;;;;;31.40;99.90;;;;;;5169160;28;20027;-75
2023/08/24 12:32:45;;;;;;;13.05;8.70;;;31.30;99.90;;;;;;5168585;28;19913;-72
2023/08/24 12:35:16;;;;;;;14.10;7.60;;;31.00;99.90;;;;;;5168359;28;20027;-74
2023/08/24 12:37:47;;;;;;;17.85;8.70;;;30.70;99.90;;;;;;5168166;28;20082;-73
2023/08/24 12:40:18;;;;;;;16.48;9.43;;;30.80;99.90;;;;;;5168295;28;20066;-73
2023/08/24 12:42:49;;;;;;;10.10;8.93;;;30.50;99.90;;;;;;5168440;28;20403;-72
2023/08/24 12:45:19;;;;;;;10.65;9.60;;;30.60;99.90;;;;;;5168331;28;20026;-73
2023/08/24 12:47:50;;;;;;;13.25;9.50;;;30.40;99.90;;;;;;5168067;28;20041;-74
2023/08/24 12:50:21;;;;;;;9.95;9.05;;;30.60;99.90;;;;;;5166773;28;20027;-72
2023/08/24 12:52:56;;;;;;;15.95;10.02;;;30.60;99.90;;;;;;5168088;28;20080;-72
2023/08/24 12:55:28;;;;;;;14.50;10.35;;;30.60;99.90;;;;;;5166932;28;20033;-74